Time;durP1;ratioP1;P1;durP2;ratioP2;P2;SDS_P1;SDS_P2;PMS_P1;PMS_P2;Temp;Humidity;BMP_temperature;BMP_pressure;BME280_temperature;BME280_humidity;BME280_pressure;Samples;Min_cycle;Max_cycle;Signal;HPM_P1;HPM_P2
2023/02/06 00:01:15;;;;;;;44.10;18.97;;;;;;;2.72;100.00;102715.31;5034567;28;20202;-81
2023/02/06 00:03:42;;;;;;;40.23;18.83;;;;;;;2.77;100.00;102721.56;5035179;28;20214;-80
2023/02/06 00:06:08;;;;;;;40.27;19.40;;;;;;;2.60;100.00;102736.19;5035084;28;20206;-81
2023/02/06 00:08:35;;;;;;;37.37;19.63;;;;;;;2.69;100.00;102731.47;5035112;28;20739;-79
2023/02/06 00:11:06;;;;;;;39.57;19.37;;;;;;;2.67;100.00;102739.97;5034420;28;20217;-82
2023/02/06 00:13:33;;;;;;;40.10;20.10;;;;;;;2.78;100.00;102725.94;5035402;28;20210;-79
2023/02/06 00:15:59;;;;;;;35.13;18.43;;;;;;;2.73;100.00;102748.88;5035320;28;20233;-82
2023/02/06 00:18:26;;;;;;;46.50;19.67;;;;;;;2.76;100.00;102738.72;5033209;28;20230;-80
2023/02/06 00:20:52;;;;;;;37.73;18.93;;;;;;;2.75;100.00;102738.66;5034329;28;20211;-79
2023/02/06 00:23:19;;;;;;;38.90;19.90;;;;;;;2.76;100.00;102743.91;5034239;28;20205;-82
2023/02/06 00:25:45;;;;;;;36.43;17.83;;;;;;;2.88;100.00;102745.31;5034517;28;20202;-81
2023/02/06 00:28:13;;;;;;;35.30;18.53;;;;;;;3.00;100.00;102751.09;5034530;28;20230;-79
2023/02/06 00:30:39;;;;;;;31.60;18.07;;;;;;;3.01;100.00;102746.81;5034681;28;20672;-82
2023/02/06 00:33:06;;;;;;;32.87;19.13;;;;;;;2.98;100.00;102766.47;5034468;28;20245;-80
2023/02/06 00:35:32;;;;;;;28.63;17.70;;;;;;;3.08;100.00;102770.41;5034719;28;20202;-82
2023/02/06 00:38:01;;;;;;;26.50;17.77;;;;;;;3.18;100.00;102771.75;5034589;28;20234;-82
2023/02/06 00:40:27;;;;;;;34.07;18.00;;;;;;;3.06;100.00;102777.19;5033883;28;20214;-79
2023/02/06 00:42:53;;;;;;;32.10;18.60;;;;;;;2.97;100.00;102797.34;5034226;28;20276;-80
2023/02/06 00:45:21;;;;;;;28.57;18.00;;;;;;;2.93;100.00;102788.59;5034443;28;20221;-82
2023/02/06 00:47:47;;;;;;;30.93;19.17;;;;;;;2.81;100.00;102776.75;5033914;28;20284;-80
2023/02/06 00:50:14;;;;;;;30.87;17.83;;;;;;;2.66;100.00;102779.47;5034482;28;20217;-81
2023/02/06 00:52:41;;;;;;;38.30;19.07;;;;;;;2.76;100.00;102759.38;5033920;28;20248;-80
2023/02/06 00:55:07;;;;;;;30.90;18.17;;;;;;;2.74;100.00;102754.94;5034679;28;20207;-81
2023/02/06 00:57:34;;;;;;;43.37;19.60;;;;;;;2.85;100.00;102752.91;5032969;28;20298;-81
2023/02/06 01:00:00;;;;;;;34.37;18.57;;;;;;;2.84;100.00;102767.50;5034623;28;20260;-80
2023/02/06 01:02:28;;;;;;;31.40;17.80;;;;;;;2.88;100.00;102766.84;5034575;28;20233;-79
2023/02/06 01:04:54;;;;;;;30.77;16.77;;;;;;;3.00;100.00;102763.97;5034388;28;20203;-81
2023/02/06 01:07:20;;;;;;;32.93;18.13;;;;;;;2.81;100.00;102769.03;5034346;28;20257;-79
2023/02/06 01:09:47;;;;;;;37.07;17.23;;;;;;;2.71;100.00;102780.56;5035984;28;20634;-80
2023/02/06 01:12:13;;;;;;;33.47;18.13;;;;;;;2.68;100.00;102778.72;5037800;28;20293;-82
2023/02/06 01:14:39;;;;;;;30.33;18.10;;;;;;;2.70;100.00;102771.06;5039112;28;20216;-81
2023/02/06 01:17:06;;;;;;;32.37;16.40;;;;;;;2.83;100.00;102773.44;5038314;28;20238;-82
2023/02/06 01:19:33;;;;;;;31.13;16.60;;;;;;;2.93;100.00;102785.13;5038268;28;20212;-80
2023/02/06 01:22:00;;;;;;;28.73;16.80;;;;;;;2.80;100.00;102793.06;5037991;28;20199;-80
2023/02/06 01:24:26;;;;;;;30.40;15.83;;;;;;;2.69;100.00;102789.91;5037841;28;20210;-80
2023/02/06 01:26:52;;;;;;;26.23;16.40;;;;;;;2.80;100.00;102804.25;5038059;28;20213;-82
2023/02/06 01:29:19;;;;;;;27.30;15.60;;;;;;;2.76;100.00;102804.91;5037969;28;20208;-82
2023/02/06 01:31:45;;;;;;;26.03;14.63;;;;;;;2.59;100.00;102802.31;5037281;28;20285;-80
2023/02/06 01:34:12;;;;;;;25.63;15.27;;;;;;;2.57;100.00;102796.19;5037986;28;20678;-81
2023/02/06 01:36:39;;;;;;;24.00;14.93;;;;;;;2.59;100.00;102799.75;5037527;28;20257;-82
2023/02/06 01:39:07;;;;;;;21.37;14.73;;;;;;;2.55;100.00;102809.81;5037516;28;20320;-79
2023/02/06 01:41:34;;;;;;;23.27;14.43;;;;;;;2.55;100.00;102812.41;5037456;28;20690;-81
2023/02/06 01:44:11;;;;;;;24.80;14.67;;;;;;;2.70;100.00;102810.63;5037646;28;20206;-82
2023/02/06 01:46:37;;;;;;;25.93;14.30;;;;;;;2.74;100.00;102809.97;5037851;28;20203;-83
2023/02/06 01:49:06;;;;;;;27.80;15.53;;;;;;;2.81;100.00;102808.59;5037714;28;20699;-80
2023/02/06 01:51:32;;;;;;;28.53;15.37;;;;;;;2.82;100.00;102820.69;5037326;28;20276;-82
2023/02/06 01:54:04;;;;;;;28.13;16.73;;;;;;;2.54;100.00;102836.44;5037618;28;20256;-82
2023/02/06 01:56:32;;;;;;;29.47;16.67;;;;;;;2.46;100.00;102838.59;5037863;28;20206;-82
2023/02/06 01:59:01;;;;;;;25.17;17.13;;;;;;;2.47;100.00;102826.59;5037765;28;20284;-81
2023/02/06 02:01:28;;;;;;;24.57;17.73;;;;;;;2.44;100.00;102817.00;5037122;28;20260;-81
2023/02/06 02:03:59;;;;;;;35.57;18.13;;;;;;;2.38;100.00;102812.41;5037774;28;20202;-81
2023/02/06 02:06:26;;;;;;;32.87;18.00;;;;;;;2.54;100.00;102801.22;5037675;28;20210;-80
2023/02/06 02:08:55;;;;;;;27.83;17.33;;;;;;;2.54;100.00;102801.22;5036873;28;20724;-82
2023/02/06 02:11:28;;;;;;;27.23;16.07;;;;;;;2.59;100.00;102802.31;5037081;28;20202;-81
2023/02/06 02:13:55;;;;;;;27.80;17.73;;;;;;;2.34;100.00;102796.72;5037054;28;20230;-80
2023/02/06 02:16:26;;;;;;;28.90;17.60;;;;;;;2.28;100.00;102786.06;5037835;28;20209;-82
2023/02/06 02:19:12;;;;;;;35.10;19.40;;;;;;;2.28;100.00;102784.41;5037231;28;20234;-83
2023/02/06 02:22:21;;;;;;;27.23;18.50;;;;;;;2.41;100.00;102783.31;5036757;28;20217;-80
2023/02/06 02:25:20;;;;;;;25.67;17.70;;;;;;;2.43;100.00;102789.44;5021750;28;20630;-80
2023/02/06 02:28:12;;;;;;;28.52;18.27;;;;;;;2.53;100.00;102794.28;5036998;28;20460;-82
2023/02/06 02:30:57;;;;;;;26.23;16.47;;;;;;;2.58;100.00;102810.00;5036981;28;20236;-81
2023/02/06 02:33:40;;;;;;;25.63;17.60;;;;;;;2.65;100.00;102819.81;5037013;28;20235;-80
2023/02/06 02:36:15;;;;;;;29.07;15.83;;;;;;;2.74;100.00;102833.19;5037264;28;20598;-83
2023/02/06 02:38:53;;;;;;;30.13;17.77;;;;;;;2.89;100.00;102845.97;5037386;28;20227;-82
2023/02/06 02:41:27;;;;;;;29.43;18.27;;;;;;;2.96;100.00;102845.50;5036927;28;20206;-82
2023/02/06 02:44:00;;;;;;;32.23;17.93;;;;;;;3.04;100.00;102868.22;5036936;28;20186;-81
2023/02/06 02:46:31;;;;;;;28.77;18.27;;;;;;;3.03;100.00;102879.34;5036901;28;20735;-82
2023/02/06 02:49:04;;;;;;;22.17;16.63;;;;;;;2.91;100.00;102888.22;5036134;28;20230;-82
2023/02/06 02:51:32;;;;;;;27.10;16.83;;;;;;;2.95;100.00;102897.00;5036311;28;20723;-83
2023/02/06 02:53:59;;;;;;;30.67;17.17;;;;;;;2.96;99.86;102896.22;5036681;28;20256;-80
2023/02/06 02:56:26;;;;;;;31.57;16.40;;;;;;;2.74;99.95;102900.25;5037138;28;20214;-80
2023/02/06 02:58:56;;;;;;;20.77;15.83;;;;;;;2.77;100.00;102894.34;5036425;28;20299;-81
2023/02/06 03:01:27;;;;;;;27.03;16.27;;;;;;;2.80;99.91;102904.84;5037692;28;20395;-82
2023/02/06 03:03:57;;;;;;;28.10;16.27;;;;;;;2.71;100.00;102884.59;5037691;28;20218;-82
2023/02/06 03:06:45;;;;;;;21.90;16.70;;;;;;;2.75;100.00;102888.22;5035934;28;20206;-82
2023/02/06 03:09:25;;;;;;;21.57;16.70;;;;;;;2.84;100.00;102887.84;5035068;28;20220;-80
2023/02/06 03:11:59;;;;;;;24.67;17.30;;;;;;;2.92;100.00;102887.41;5033934;28;20677;-80
2023/02/06 03:14:30;;;;;;;26.27;17.60;;;;;;;2.98;100.00;102879.13;5034323;28;20207;-81
2023/02/06 03:17:02;;;;;;;26.27;16.43;;;;;;;3.07;100.00;102877.03;5033673;28;20258;-79
2023/02/06 03:19:32;;;;;;;24.97;16.13;;;;;;;2.91;100.00;102889.91;5033926;28;20204;-79
2023/02/06 03:22:00;;;;;;;22.90;16.27;;;;;;;2.82;100.00;102876.56;5034124;28;20246;-79
2023/02/06 03:24:32;;;;;;;32.47;19.07;;;;;;;2.41;100.00;102862.34;5034333;28;20207;-79
2023/02/06 03:27:01;;;;;;;24.67;15.73;;;;;;;2.22;100.00;102824.38;5034593;28;20770;-79
2023/02/06 03:29:30;;;;;;;20.37;15.17;;;;;;;2.32;100.00;102806.94;5034443;28;20265;-80
2023/02/06 03:32:00;;;;;;;20.30;14.90;;;;;;;2.26;100.00;102823.75;5033969;28;20207;-79
2023/02/06 03:34:38;;;;;;;21.43;14.80;;;;;;;2.10;100.00;102837.50;5034598;28;20246;-80
2023/02/06 03:37:06;;;;;;;24.07;15.50;;;;;;;2.14;100.00;102849.72;5034398;28;20233;-78
2023/02/06 03:39:33;;;;;;;19.93;14.17;;;;;;;2.03;100.00;102861.16;5034870;28;20265;-79
2023/02/06 03:42:01;;;;;;;16.57;12.50;;;;;;;1.71;100.00;102861.13;5034140;28;20211;-79
2023/02/06 03:44:32;;;;;;;21.13;13.57;;;;;;;1.58;100.00;102853.50;5034585;28;20673;-82
2023/02/06 03:47:00;;;;;;;17.17;13.00;;;;;;;1.52;100.00;102833.44;5034535;28;20736;-80
2023/02/06 03:49:29;;;;;;;18.43;13.83;;;;;;;1.69;100.00;102826.69;5034701;28;20248;-79
2023/02/06 03:52:01;;;;;;;16.47;13.57;;;;;;;1.64;100.00;102817.81;5033947;28;20206;-80
2023/02/06 03:54:30;;;;;;;28.40;14.20;;;;;;;1.75;100.00;102832.19;5034432;28;20235;-79
2023/02/06 03:57:00;;;;;;;20.50;14.60;;;;;;;1.80;100.00;102829.84;5034110;28;20217;-79
2023/02/06 03:59:27;;;;;;;22.33;15.10;;;;;;;1.87;100.00;102823.38;5034015;28;20214;-79
2023/02/06 04:01:56;;;;;;;26.07;15.87;;;;;;;2.05;100.00;102829.53;5045803;28;20221;-79
2023/02/06 04:04:27;;;;;;;18.90;16.13;;;;;;;1.93;100.00;102849.47;5053483;28;20205;-79
2023/02/06 04:06:54;;;;;;;28.60;16.23;;;;;;;2.02;100.00;102849.94;5043972;28;20654;-79
2023/02/06 04:09:21;;;;;;;21.60;16.07;;;;;;;2.12;100.00;102851.34;5033473;28;20256;-79
2023/02/06 04:11:49;;;;;;;23.00;15.20;;;;;;;2.04;100.00;102865.50;5033361;28;20206;-80
2023/02/06 04:14:15;;;;;;;22.77;16.43;;;;;;;2.08;99.91;102858.03;5033461;28;20233;-80
2023/02/06 04:16:41;;;;;;;23.80;16.17;;;;;;;1.89;99.83;102868.13;5033416;28;20229;-80
2023/02/06 04:19:08;;;;;;;23.63;15.00;;;;;;;1.68;100.00;102848.06;5033375;28;20210;-81
2023/02/06 04:21:34;;;;;;;21.57;15.30;;;;;;;1.86;100.00;102839.59;5033094;28;20206;-79
2023/02/06 04:24:01;;;;;;;26.67;16.30;;;;;;;1.87;100.00;102839.69;5033679;28;20209;-79
2023/02/06 04:26:27;;;;;;;26.50;16.80;;;;;;;1.93;100.00;102840.03;5033961;28;20278;-80
2023/02/06 04:28:55;;;;;;;27.17;15.80;;;;;;;1.81;99.86;102841.06;5033887;28;20235;-80
2023/02/06 04:31:21;;;;;;;32.60;17.10;;;;;;;1.89;99.96;102844.94;5034097;28;20256;-80
2023/02/06 04:33:47;;;;;;;23.83;16.03;;;;;;;1.98;99.53;102851.50;5034135;28;20226;-79
2023/02/06 04:36:14;;;;;;;32.57;16.80;;;;;;;2.09;99.32;102870.09;5033771;28;20223;-79
2023/02/06 04:38:40;;;;;;;19.37;15.23;;;;;;;2.17;98.68;102883.41;5035408;28;20230;-81
2023/02/06 04:41:07;;;;;;;23.87;15.70;;;;;;;2.10;98.12;102884.78;5053480;28;20213;-82
2023/02/06 04:43:33;;;;;;;23.43;15.73;;;;;;;2.16;97.18;102904.81;5054929;28;20211;-80
2023/02/06 04:46:01;;;;;;;21.80;16.07;;;;;;;2.15;96.75;102921.97;5057993;28;20205;-79
2023/02/06 04:48:28;;;;;;;24.00;15.40;;;;;;;2.04;96.53;102930.78;5057866;28;20225;-80
2023/02/06 04:50:54;;;;;;;22.53;14.43;;;;;;;2.05;96.53;102929.09;5057721;28;20206;-82
2023/02/06 04:53:20;;;;;;;23.20;15.83;;;;;;;2.05;96.55;102939.41;5058132;28;20229;-81
2023/02/06 04:55:47;;;;;;;20.13;14.50;;;;;;;1.86;97.03;102948.66;5058093;28;20205;-80
2023/02/06 04:58:13;;;;;;;20.13;15.77;;;;;;;1.74;96.75;102935.97;5057436;28;20296;-80
2023/02/06 05:00:39;;;;;;;17.80;14.57;;;;;;;1.82;97.78;102920.94;5057550;28;20207;-81
2023/02/06 05:03:07;;;;;;;21.27;14.93;;;;;;;1.98;97.95;102905.59;5057753;28;20200;-81
2023/02/06 05:05:33;;;;;;;22.30;15.33;;;;;;;2.10;97.16;102915.69;5057396;28;20774;-83
2023/02/06 05:08:00;;;;;;;27.10;16.63;;;;;;;2.07;96.76;102923.22;5040021;28;20292;-80
2023/02/06 05:10:26;;;;;;;26.50;15.17;;;;;;;1.62;97.77;102931.81;5037554;28;20256;-79
2023/02/06 05:12:54;;;;;;;22.53;16.93;;;;;;;1.36;99.37;102903.75;5038436;28;20272;-79
2023/02/06 05:15:21;;;;;;;23.77;16.63;;;;;;;1.13;100.00;102870.63;5038364;28;20210;-80
2023/02/06 05:17:47;;;;;;;31.83;17.40;;;;;;;1.28;100.00;102835.50;5037704;28;20261;-81
2023/02/06 05:20:15;;;;;;;29.67;16.13;;;;;;;0.97;100.00;102825.09;5037262;28;20668;-81
2023/02/06 05:22:41;;;;;;;24.17;15.97;;;;;;;1.10;100.00;102801.00;5037796;28;20202;-82
2023/02/06 05:25:08;;;;;;;26.47;16.40;;;;;;;1.30;100.00;102802.16;5037684;28;20210;-80
2023/02/06 05:27:34;;;;;;;21.53;15.57;;;;;;;1.30;100.00;102804.72;5037563;28;20361;-81
2023/02/06 05:30:00;;;;;;;32.20;15.70;;;;;;;1.26;100.00;102815.66;5038043;28;20625;-83
2023/02/06 05:32:27;;;;;;;29.60;15.13;;;;;;;1.22;100.00;102818.84;5037516;28;20213;-81
2023/02/06 05:34:53;;;;;;;30.87;16.37;;;;;;;1.40;100.00;102832.75;5037692;28;20222;-80
2023/02/06 05:37:21;;;;;;;23.87;15.63;;;;;;;1.45;100.00;102840.72;5037384;28;20269;-83
2023/02/06 05:39:47;;;;;;;28.23;15.70;;;;;;;1.55;99.99;102851.66;5037721;28;20207;-80
2023/02/06 05:42:14;;;;;;;31.63;16.17;;;;;;;1.51;99.34;102867.72;5037306;28;20217;-80
2023/02/06 05:44:40;;;;;;;27.80;15.63;;;;;;;1.38;99.30;102880.66;5037644;28;20612;-84
2023/02/06 05:47:06;;;;;;;24.53;16.20;;;;;;;1.43;98.60;102880.94;5036919;28;20295;-83
2023/02/06 05:49:33;;;;;;;27.87;14.90;;;;;;;1.41;99.14;102898.88;5037495;28;20207;-81
2023/02/06 05:51:59;;;;;;;22.83;16.37;;;;;;;1.48;98.46;102898.41;5037275;28;20218;-81
2023/02/06 05:54:27;;;;;;;22.50;16.23;;;;;;;1.43;98.43;102912.72;5042002;28;20250;-83
2023/02/06 05:56:55;;;;;;;25.87;15.63;;;;;;;1.59;98.30;102915.38;5055715;28;20221;-80
2023/02/06 05:59:22;;;;;;;29.03;15.63;;;;;;;1.34;98.00;102925.03;5055747;28;20215;-83
2023/02/06 06:01:48;;;;;;;20.97;15.00;;;;;;;1.47;97.77;102924.97;5055349;28;20234;-83
2023/02/06 06:04:15;;;;;;;30.00;15.57;;;;;;;1.29;98.06;102934.16;5056764;28;20186;-80
2023/02/06 06:06:41;;;;;;;27.67;15.73;;;;;;;1.45;98.18;102935.94;5056377;28;20210;-82
2023/02/06 06:09:08;;;;;;;24.57;15.20;;;;;;;1.45;97.54;102938.53;5060369;28;20213;-83
2023/02/06 06:11:36;;;;;;;30.03;15.63;;;;;;;1.60;98.06;102942.00;5071216;28;20206;-82
2023/02/06 06:14:02;;;;;;;31.67;17.97;;;;;;;1.61;97.78;102959.25;5071144;28;20230;-81
2023/02/06 06:16:28;;;;;;;35.13;17.57;;;;;;;1.78;96.74;102963.69;5072552;28;20209;-82
2023/02/06 06:18:55;;;;;;;29.83;16.93;;;;;;;1.83;96.39;102987.13;5075535;28;20229;-83
2023/02/06 06:21:22;;;;;;;28.27;15.77;;;;;;;1.85;96.52;103000.97;5074931;28;20197;-85
2023/02/06 06:23:48;;;;;;;27.17;15.80;;;;;;;1.89;95.85;103020.06;5075889;28;20203;-80
2023/02/06 06:26:14;;;;;;;33.60;17.30;;;;;;;1.92;95.24;103027.97;5076308;28;20232;-85
2023/02/06 06:28:42;;;;;;;35.90;17.07;;;;;;;1.88;95.00;103042.34;5071429;28;20225;-82
2023/02/06 06:31:11;;;;;;;36.50;17.00;;;;;;;1.89;95.31;103041.56;5059770;28;20261;-84
2023/02/06 06:33:38;;;;;;;32.27;17.10;;;;;;;1.72;95.04;103039.66;5046722;28;20747;-84
2023/02/06 06:36:05;;;;;;;26.47;16.63;;;;;;;1.78;96.16;103038.38;5057374;28;20268;-82
2023/02/06 06:38:31;;;;;;;25.67;16.40;;;;;;;1.88;95.23;103038.88;5057924;28;20263;-83
2023/02/06 06:40:58;;;;;;;33.23;17.00;;;;;;;1.84;95.34;103048.09;5057991;28;20287;-84
2023/02/06 06:43:24;;;;;;;39.33;17.03;;;;;;;1.80;95.48;103043.56;5057419;28;20292;-83
2023/02/06 06:45:52;;;;;;;31.33;16.63;;;;;;;1.87;95.20;103045.72;5055380;28;20206;-84
2023/02/06 06:48:18;;;;;;;29.43;15.50;;;;;;;1.93;95.60;103046.09;5050920;28;20226;-87
2023/02/06 06:50:45;;;;;;;23.77;16.07;;;;;;;1.99;94.87;103050.72;5037740;28;20218;-88
2023/02/06 06:53:12;;;;;;;32.00;16.23;;;;;;;2.06;94.31;103073.47;5038209;28;20205;-88
2023/02/06 06:55:38;;;;;;;29.27;15.50;;;;;;;2.05;93.49;103089.72;5040763;28;20261;-84
2023/02/06 06:58:04;;;;;;;24.87;14.60;;;;;;;1.92;93.97;103093.25;5036790;28;20238;-84
2023/02/06 07:00:31;;;;;;;27.30;15.80;;;;;;;1.90;93.33;103094.84;5029101;28;20677;-85
2023/02/06 07:02:59;;;;;;;21.33;14.70;;;;;;;1.83;93.99;103096.97;5029427;28;20298;-83
2023/02/06 07:05:25;;;;;;;24.03;15.13;;;;;;;1.87;94.06;103089.50;5031429;28;20222;-80
2023/02/06 07:07:51;;;;;;;29.43;14.30;;;;;;;1.92;93.55;103087.19;5031888;28;20220;-84
2023/02/06 07:10:18;;;;;;;19.20;13.77;;;;;;;1.91;93.61;103090.59;5028954;28;20203;-80
2023/02/06 07:12:45;;;;;;;21.23;13.10;;;;;;;1.91;93.36;103091.47;5030124;28;20202;-82
2023/02/06 07:15:11;;;;;;;22.70;13.77;;;;;;;1.90;94.15;103083.63;5033546;28;20719;-82
2023/02/06 07:17:38;;;;;;;31.27;13.90;;;;;;;1.63;93.89;103082.91;5028430;28;20225;-82
2023/02/06 07:20:07;;;;;;;23.07;13.63;;;;;;;1.55;94.33;103069.56;5026997;28;20230;-81
2023/02/06 07:22:34;;;;;;;24.07;13.27;;;;;;;1.57;94.72;103053.41;5029406;28;20695;-86
2023/02/06 07:25:00;;;;;;;28.73;14.50;;;;;;;1.59;95.55;103054.38;5029841;28;20221;-81
2023/02/06 07:27:26;;;;;;;27.93;14.00;;;;;;;1.66;96.30;103039.31;5029385;28;20219;-82
2023/02/06 07:29:53;;;;;;;21.10;13.23;;;;;;;1.40;95.38;103046.34;5027673;28;20202;-82
2023/02/06 07:32:19;;;;;;;27.87;14.13;;;;;;;1.14;96.76;103022.47;5029906;28;20199;-84
2023/02/06 07:34:46;;;;;;;26.60;15.23;;;;;;;1.07;97.81;102992.06;5029502;28;20615;-85
2023/02/06 07:37:13;;;;;;;33.83;15.70;;;;;;;0.96;98.59;102975.06;5029262;28;20225;-80
2023/02/06 07:39:40;;;;;;;28.13;15.67;;;;;;;1.04;99.66;102954.97;5031095;28;20744;-81
2023/02/06 07:42:07;;;;;;;27.67;15.73;;;;;;;0.84;99.88;102941.78;5025384;28;20191;-80
2023/02/06 07:44:33;;;;;;;28.40;14.87;;;;;;;0.51;100.00;102918.31;5024928;28;20286;-80
2023/02/06 07:46:59;;;;;;;24.30;15.40;;;;;;;0.09;100.00;102878.00;5026084;28;20216;-82
2023/02/06 07:49:26;;;;;;;36.33;17.73;;;;;;;0.11;100.00;102830.19;5029862;28;20199;-83
2023/02/06 07:51:52;;;;;;;30.77;15.43;;;;;;;0.36;100.00;102799.22;5029604;28;20722;-81
2023/02/06 07:54:20;;;;;;;32.27;15.37;;;;;;;0.16;100.00;102796.31;5028380;28;20305;-82
2023/02/06 07:56:46;;;;;;;25.90;15.40;;;;;;;0.11;100.00;102797.69;5027727;28;20206;-83
2023/02/06 07:59:13;;;;;;;30.23;16.47;;;;;;;0.08;100.00;102804.31;5028854;28;20229;-82
2023/02/06 08:01:39;;;;;;;36.17;15.80;;;;;;;-0.03;100.00;102793.41;5026819;28;20720;-81
2023/02/06 08:04:05;;;;;;;31.03;14.67;;;;;;;0.02;100.00;102780.84;5027435;28;20199;-82
2023/02/06 08:06:32;;;;;;;32.40;14.90;;;;;;;0.13;100.00;102788.41;5033342;28;20209;-82
2023/02/06 08:08:59;;;;;;;32.30;15.30;;;;;;;0.43;100.00;102773.09;5030368;28;20218;-83
2023/02/06 08:11:29;;;;;;;27.47;15.40;;;;;;;0.33;100.00;102788.75;5026980;28;20198;-83
2023/02/06 08:13:56;;;;;;;33.90;15.63;;;;;;;0.17;100.00;102785.22;5018357;28;20231;-81
2023/02/06 08:16:23;;;;;;;30.47;15.40;;;;;;;0.07;100.00;102784.59;5025745;28;21012;-82
2023/02/06 08:18:50;;;;;;;25.83;14.80;;;;;;;0.19;100.00;102785.34;5041369;28;20653;-81
2023/02/06 08:21:20;;;;;;;36.87;15.57;;;;;;;0.15;100.00;102791.06;5045641;28;20207;-81
2023/02/06 08:23:47;;;;;;;30.73;15.87;;;;;;;0.48;100.00;102776.84;5045836;28;20643;-83
2023/02/06 08:26:15;;;;;;;31.03;15.90;;;;;;;0.17;100.00;102779.22;5045730;28;20213;-82
2023/02/06 08:28:44;;;;;;;42.43;16.37;;;;;;;0.60;100.00;102750.97;5046132;28;20233;-83
2023/02/06 08:31:12;;;;;;;487.10;45.57;;;;;;;0.95;100.00;102718.72;5046000;28;20209;-82
2023/02/06 08:33:39;;;;;;;52.43;17.60;;;;;;;1.19;100.00;102706.38;5046592;28;20205;-83
2023/02/06 08:36:07;;;;;;;25.97;14.13;;;;;;;0.85;100.00;102732.72;5047186;28;20221;-83
2023/02/06 08:38:34;;;;;;;25.60;14.83;;;;;;;0.59;100.00;102742.41;5047122;28;20261;-82
2023/02/06 08:41:00;;;;;;;24.17;12.87;;;;;;;0.19;100.00;102763.09;5066320;28;20225;-82
2023/02/06 08:43:27;;;;;;;24.13;13.77;;;;;;;0.23;100.00;102764.19;5067171;28;20205;-83
2023/02/06 08:45:56;;;;;;;23.90;13.87;;;;;;;0.01;100.00;102759.41;5055994;28;20198;-82
2023/02/06 08:48:23;;;;;;;30.67;15.53;;;;;;;-0.08;100.00;102754.63;5045781;28;20268;-85
2023/02/06 08:50:49;;;;;;;40.37;16.63;;;;;;;0.21;100.00;102745.22;5045517;28;20823;-83
2023/02/06 08:53:16;;;;;;;47.23;16.53;;;;;;;0.16;100.00;102739.81;5042274;28;20198;-86
2023/02/06 08:55:42;;;;;;;40.47;16.33;;;;;;;0.50;100.00;102735.81;5042488;28;20222;-85
2023/02/06 08:58:09;;;;;;;45.50;18.53;;;;;;;0.67;100.00;102731.66;5042414;28;20292;-82
2023/02/06 09:00:35;;;;;;;42.60;17.67;;;;;;;0.85;100.00;102734.41;5039298;28;20588;-83
2023/02/06 09:03:04;;;;;;;46.77;18.67;;;;;;;0.87;100.00;102749.13;5042073;28;20210;-82
2023/02/06 09:05:30;;;;;;;39.77;18.27;;;;;;;0.84;100.00;102755.78;5041618;28;20205;-81
2023/02/06 09:07:57;;;;;;;40.23;17.30;;;;;;;1.05;100.00;102758.69;5043527;28;20226;-82
2023/02/06 09:10:23;;;;;;;31.10;16.73;;;;;;;0.94;100.00;102770.94;5042119;28;20202;-81
2023/02/06 09:12:52;;;;;;;35.10;15.90;;;;;;;0.58;100.00;102776.59;5042991;28;21756;-81
2023/02/06 09:15:19;;;;;;;32.80;16.30;;;;;;;0.36;100.00;102770.97;5041349;28;20250;-80
2023/02/06 09:17:45;;;;;;;37.10;15.97;;;;;;;0.21;100.00;102752.94;5043142;28;20218;-81
2023/02/06 09:20:13;;;;;;;38.17;16.87;;;;;;;0.42;100.00;102732.78;5043099;28;20220;-82
2023/02/06 09:22:39;;;;;;;43.47;18.13;;;;;;;0.44;100.00;102720.00;5043377;28;20202;-81
2023/02/06 09:25:06;;;;;;;38.20;16.43;;;;;;;0.06;100.00;102721.16;5043480;28;20202;-82
2023/02/06 09:27:33;;;;;;;37.20;17.67;;;;;;;0.16;100.00;102713.25;5043809;28;20637;-81
2023/02/06 09:29:59;;;;;;;36.53;16.63;;;;;;;0.10;100.00;102712.84;5041238;28;20199;-81
2023/02/06 09:32:26;;;;;;;42.50;17.20;;;;;;;0.42;100.00;102701.97;5040621;28;20264;-81
2023/02/06 09:34:52;;;;;;;44.33;17.10;;;;;;;0.44;100.00;102707.16;5036877;28;20221;-80
2023/02/06 09:37:20;;;;;;;45.57;18.87;;;;;;;0.50;100.00;102715.28;5040695;28;20313;-81
2023/02/06 09:39:46;;;;;;;41.30;18.03;;;;;;;0.56;100.00;102711.38;5041496;28;20211;-80
2023/02/06 09:42:18;;;;;;;36.90;18.30;;;;;;;0.57;100.00;102717.38;5041313;28;20194;-78
2023/02/06 09:44:48;;;;;;;34.47;18.00;;;;;;;0.54;100.00;102720.66;5040060;28;20196;-81
2023/02/06 09:47:23;;;;;;;37.53;15.13;;;;;;;0.81;100.00;102729.88;5039609;28;20226;-82
2023/02/06 09:49:52;;;;;;;38.00;16.87;;;;;;;1.03;100.00;102730.34;5038624;28;20237;-82
2023/02/06 09:52:35;;;;;;;34.10;17.47;;;;;;;1.28;100.00;102744.59;5039236;28;20214;-82
2023/02/06 09:55:08;;;;;;;37.40;16.30;;;;;;;1.15;100.00;102777.34;5039091;28;20233;-82
2023/02/06 09:57:42;;;;;;;27.30;16.50;;;;;;;1.46;100.00;102784.22;5020529;28;20234;-81
2023/02/06 10:00:25;;;;;;;26.13;15.37;;;;;;;1.73;100.00;102805.47;5019530;28;20211;-81
2023/02/06 10:03:03;;;;;;;24.10;13.60;;;;;;;1.76;100.00;102839.13;5020433;28;20206;-81
2023/02/06 10:05:41;;;;;;;23.63;14.40;;;;;;;1.65;100.00;102858.22;5019474;28;20288;-81
2023/02/06 10:08:19;;;;;;;27.10;13.47;;;;;;;1.62;100.00;102876.03;5034696;28;20249;-82
2023/02/06 10:10:51;;;;;;;29.27;14.03;;;;;;;1.77;100.00;102883.78;5055997;28;20570;-81
2023/02/06 10:13:23;;;;;;;34.63;15.87;;;;;;;1.91;100.00;102881.97;5058953;28;20247;-80
2023/02/06 10:15:54;;;;;;;30.13;14.33;;;;;;;1.90;99.98;102906.84;5058418;28;20222;-81
2023/02/06 10:18:28;;;;;;;32.33;16.73;;;;;;;2.17;99.82;102911.75;5059172;28;20808;-81
2023/02/06 10:20:58;;;;;;;25.10;15.83;;;;;;;2.42;97.74;102933.69;5058665;28;20248;-79
2023/02/06 10:23:32;;;;;;;30.47;13.23;;;;;;;2.66;96.76;102970.28;5058158;28;20212;-81
2023/02/06 10:26:05;;;;;;;28.53;14.73;;;;;;;2.80;96.77;102991.66;5058747;28;20213;-81
2023/02/06 10:28:34;;;;;;;25.50;13.67;;;;;;;2.96;95.93;102999.41;5058187;28;20230;-81
2023/02/06 10:31:29;;;;;;;19.63;12.70;;;;;;;3.07;94.05;103026.69;5058125;28;20202;-81
2023/02/06 10:34:10;;;;;;;23.23;13.13;;;;;;;3.17;92.87;103067.66;5058143;28;20209;-82
2023/02/06 10:36:50;;;;;;;25.37;13.57;;;;;;;3.25;92.21;103096.47;5054671;28;20231;-82
2023/02/06 10:39:50;;;;;;;27.10;13.87;;;;;;;3.21;91.67;103116.84;5038189;28;20206;-82
2023/02/06 10:42:23;;;;;;;21.80;13.20;;;;;;;3.27;91.30;103131.00;5033673;28;20216;-82
2023/02/06 10:44:56;;;;;;;33.37;15.83;;;;;;;3.14;90.57;103141.44;5033522;28;20206;-81
2023/02/06 10:47:32;;;;;;;25.60;13.97;;;;;;;2.90;91.16;103159.03;5033034;28;20725;-80
2023/02/06 10:50:03;;;;;;;30.50;14.37;;;;;;;2.95;91.21;103155.91;5034270;28;20218;-81
2023/02/06 10:52:33;;;;;;;25.57;14.47;;;;;;;3.06;91.17;103146.16;5033619;28;20202;-81
2023/02/06 10:55:12;;;;;;;36.07;18.37;;;;;;;3.21;90.92;103140.97;5033563;28;20229;-80
2023/02/06 10:57:41;;;;;;;21.33;14.20;;;;;;;3.36;90.80;103157.28;5033238;28;20225;-81
2023/02/06 11:00:12;;;;;;;28.40;15.43;;;;;;;3.45;90.48;103169.81;5033883;28;20213;-81
2023/02/06 11:02:45;;;;;;;24.77;14.33;;;;;;;3.60;90.14;103176.63;5035081;28;20207;-79
2023/02/06 11:05:16;;;;;;;19.47;12.00;;;;;;;3.73;89.40;103181.66;5033436;28;20214;-81
2023/02/06 11:07:47;;;;;;;27.83;14.53;;;;;;;3.30;89.02;103205.13;5033568;28;20288;-81
2023/02/06 11:10:17;;;;;;;25.17;12.43;;;;;;;3.49;89.06;103197.59;5047946;28;20201;-81
2023/02/06 11:12:50;;;;;;;21.20;13.60;;;;;;;3.60;88.49;103205.91;5053743;28;20202;-82
2023/02/06 11:15:23;;;;;;;26.33;12.40;;;;;;;3.68;89.20;103201.16;5053877;28;20230;-82
2023/02/06 11:17:51;;;;;;;23.33;14.43;;;;;;;3.80;88.98;103193.19;5052152;28;20585;-79
2023/02/06 11:20:21;;;;;;;23.00;13.97;;;;;;;3.82;89.25;103191.56;5052905;28;20263;-80